createdAt,value
2022-09-12T00:01:31.547Z,89.79
2022-09-12T00:03:34.464Z,90.00
2022-09-12T00:05:44.791Z,90.63
2022-09-12T00:07:47.396Z,90.73
2022-09-12T00:09:49.959Z,91.02
2022-09-12T00:11:52.534Z,91.04
2022-09-12T00:13:59.667Z,91.34
2022-09-12T00:16:02.502Z,91.47
2022-09-12T00:18:05.456Z,91.76
2022-09-12T00:20:09.562Z,91.77
2022-09-12T00:22:12.066Z,91.95
2022-09-12T00:24:14.628Z,91.58
2022-09-12T00:26:18.807Z,91.63
2022-09-12T00:28:21.344Z,91.93
2022-09-12T00:30:24.164Z,91.83
2022-09-12T00:32:26.802Z,91.86
2022-09-12T00:34:29.360Z,92.32
2022-09-12T00:36:31.931Z,92.32
2022-09-12T00:38:38.530Z,92.23
2022-09-12T00:40:42.834Z,92.32
2022-09-12T00:42:45.357Z,92.88
2022-09-12T00:44:51.254Z,92.84
2022-09-12T00:46:59.258Z,92.94
2022-09-12T00:49:14.247Z,92.99
2022-09-12T00:51:18.652Z,92.90
2022-09-12T00:53:21.641Z,93.33
2022-09-12T00:55:54.816Z,93.43
2022-09-12T00:58:01.988Z,93.17
2022-09-12T01:00:14.944Z,93.17
2022-09-12T01:02:18.073Z,92.63
2022-09-12T01:04:23.478Z,92.28
2022-09-12T01:06:29.667Z,92.45
2022-09-12T01:08:34.512Z,92.64
2022-09-12T01:10:40.508Z,92.87
2022-09-12T01:12:44.405Z,93.44
2022-09-12T01:14:46.977Z,93.39
2022-09-12T01:16:51.003Z,93.04
2022-09-12T01:19:27.321Z,93.19
2022-09-12T01:21:45.130Z,93.73
2022-09-12T01:24:12.483Z,93.97
2022-09-12T01:26:20.962Z,94.19
2022-09-12T01:28:44.229Z,94.38
2022-09-12T01:30:46.804Z,94.15
2022-09-12T01:33:07.870Z,94.58
2022-09-12T01:35:41.924Z,94.23
2022-09-12T01:37:58.999Z,94.55
2022-09-12T01:40:30.038Z,94.08
2022-09-12T01:42:41.159Z,94.19
2022-09-12T01:45:03.540Z,94.43
2022-09-12T01:47:19.654Z,94.59
2022-09-12T01:49:37.590Z,94.82
2022-09-12T01:51:45.686Z,94.69
2022-09-12T01:53:56.081Z,94.81
2022-09-12T01:56:22.882Z,95.18
2022-09-12T01:58:30.537Z,94.75
2022-09-12T02:00:38.177Z,94.86
2022-09-12T02:02:48.795Z,94.83
2022-09-12T02:05:09.111Z,94.63
2022-09-12T02:07:18.497Z,94.40
2022-09-12T02:09:26.245Z,94.71
2022-09-12T02:11:33.336Z,94.58
2022-09-12T02:14:02.018Z,94.93
2022-09-12T02:16:26.107Z,95.02
2022-09-12T02:18:32.412Z,94.67
2022-09-12T02:20:47.842Z,94.80
2022-09-12T02:22:56.009Z,94.89
2022-09-12T02:25:01.337Z,95.09
2022-09-12T02:27:39.680Z,95.14
2022-09-12T02:29:44.828Z,95.15
2022-09-12T02:31:53.515Z,95.17
2022-09-12T02:34:23.132Z,94.85
2022-09-12T02:36:25.629Z,95.26
2022-09-12T02:38:38.517Z,94.96
2022-09-12T02:40:41.737Z,95.05
2022-09-12T02:42:44.378Z,94.68
2022-09-12T02:44:47.273Z,95.04
2022-09-12T02:46:55.988Z,94.40
2022-09-12T02:48:58.925Z,93.63
2022-09-12T02:51:02.656Z,93.77
2022-09-12T02:53:08.436Z,93.27
2022-09-12T02:55:11.849Z,92.97
2022-09-12T02:57:22.641Z,92.59
2022-09-12T02:59:26.603Z,92.43
2022-09-12T03:01:50.612Z,91.94
2022-09-12T03:03:55.783Z,91.55
2022-09-12T03:06:01.307Z,91.59
2022-09-12T03:08:09.723Z,91.26
2022-09-12T03:10:35.128Z,91.07
2022-09-12T03:12:46.220Z,91.03
2022-09-12T03:14:54.436Z,90.69
2022-09-12T03:17:25.961Z,90.60
2022-09-12T03:19:57.815Z,90.20
2022-09-12T03:22:21.530Z,90.07
2022-09-12T03:24:38.714Z,89.47
2022-09-12T03:26:46.889Z,89.17
2022-09-12T03:28:50.476Z,89.43
2022-09-12T03:30:54.862Z,89.02
2022-09-12T03:32:57.527Z,89.02
2022-09-12T03:35:00.069Z,88.82
2022-09-12T03:37:02.934Z,88.88
2022-09-12T03:39:05.697Z,88.57
2022-09-12T03:41:08.365Z,88.81
2022-09-12T03:43:11.369Z,89.18
2022-09-12T03:45:13.942Z,89.05
2022-09-12T03:47:16.722Z,89.23
2022-09-12T03:49:19.633Z,89.11
2022-09-12T03:51:22.374Z,89.33
2022-09-12T03:53:25.043Z,89.03
2022-09-12T03:55:27.973Z,88.82
2022-09-12T03:57:30.566Z,89.13
2022-09-12T03:59:33.237Z,88.92
2022-09-12T04:01:35.788Z,88.57
2022-09-12T04:03:40.141Z,88.97
2022-09-12T04:05:48.044Z,89.34
2022-09-12T04:07:50.609Z,89.17
2022-09-12T04:09:53.612Z,89.58
2022-09-12T04:11:56.170Z,89.25
2022-09-12T04:13:58.865Z,89.26
2022-09-12T04:16:02.099Z,89.31
2022-09-12T04:18:06.054Z,88.82
2022-09-12T04:20:09.507Z,88.68
2022-09-12T04:22:12.121Z,88.82
2022-09-12T04:24:14.663Z,88.29
2022-09-12T04:26:18.847Z,88.87
2022-09-12T04:28:21.550Z,88.97
2022-09-12T04:30:24.261Z,89.39
2022-09-12T04:32:26.836Z,89.25
2022-09-12T04:34:31.763Z,89.23
2022-09-12T04:36:34.622Z,88.62
2022-09-12T04:38:37.876Z,88.82
2022-09-12T04:40:40.720Z,88.67
2022-09-12T04:42:43.482Z,88.62
2022-09-12T04:44:46.166Z,88.09
2022-09-12T04:46:49.052Z,87.90
2022-09-12T04:48:56.437Z,87.68
2022-09-12T04:51:17.844Z,87.15
2022-09-12T04:53:20.448Z,86.79
2022-09-12T04:55:25.484Z,86.74
2022-09-12T04:57:28.131Z,87.10
2022-09-12T04:59:30.605Z,86.46
2022-09-12T05:01:33.508Z,85.79
2022-09-12T05:03:41.795Z,85.55
2022-09-12T05:05:47.293Z,85.25
2022-09-12T05:07:49.879Z,84.99
2022-09-12T05:09:52.540Z,84.75
2022-09-12T05:12:10.450Z,83.85
2022-09-12T05:14:13.148Z,82.98
2022-09-12T05:16:17.383Z,82.55
2022-09-12T05:18:19.893Z,81.74
2022-09-12T05:20:22.495Z,81.18
2022-09-12T05:22:25.342Z,80.50
2022-09-12T05:24:28.147Z,78.84
2022-09-12T05:26:30.738Z,78.24
2022-09-12T05:28:36.292Z,77.31
2022-09-12T05:30:38.890Z,76.08
2022-09-12T05:32:41.406Z,74.66
2022-09-12T05:34:43.909Z,74.08
2022-09-12T05:36:46.487Z,73.89
2022-09-12T05:38:49.019Z,73.86
2022-09-12T05:40:52.503Z,73.15
2022-09-12T05:42:55.047Z,72.83
2022-09-12T05:44:57.648Z,72.69
2022-09-12T05:47:00.215Z,73.06
2022-09-12T05:49:07.806Z,72.85
2022-09-12T05:51:13.872Z,71.93
2022-09-12T05:53:16.364Z,71.48
2022-09-12T05:55:19.679Z,71.49
2022-09-12T05:57:22.315Z,70.59
2022-09-12T05:59:24.915Z,70.58
2022-09-12T06:01:29.218Z,70.47
2022-09-12T06:03:31.839Z,70.66
2022-09-12T06:05:34.935Z,70.13
2022-09-12T06:07:37.464Z,69.11
2022-09-12T06:09:39.983Z,68.85
2022-09-12T06:11:43.222Z,68.53
2022-09-12T06:13:46.170Z,68.35
2022-09-12T06:15:48.771Z,67.67
2022-09-12T06:17:51.611Z,66.74
2022-09-12T06:19:54.336Z,65.93
2022-09-12T06:21:57.218Z,64.38
2022-09-12T06:23:59.703Z,63.99
2022-09-12T06:26:04.423Z,63.76
2022-09-12T06:28:06.920Z,62.20
2022-09-12T06:30:09.941Z,61.36
2022-09-12T06:32:12.537Z,60.78
2022-09-12T06:34:16.181Z,61.25
2022-09-12T06:36:24.564Z,61.34
2022-09-12T06:38:27.075Z,59.15
2022-09-12T06:40:29.988Z,59.40
2022-09-12T06:42:33.264Z,59.39
2022-09-12T06:44:36.182Z,58.00
2022-09-12T06:46:38.780Z,55.75
2022-09-12T06:48:42.487Z,56.14
2022-09-12T06:50:56.610Z,55.86
2022-09-12T06:52:59.094Z,54.58
2022-09-12T06:55:01.646Z,53.05
2022-09-12T06:57:04.450Z,52.81
2022-09-12T06:59:06.967Z,52.33
2022-09-12T07:01:18.415Z,52.30
2022-09-12T07:03:20.957Z,52.24
2022-09-12T07:05:24.082Z,52.59
2022-09-12T07:07:26.837Z,53.86
2022-09-12T07:09:30.951Z,55.01
2022-09-12T07:11:36.694Z,54.62
2022-09-12T07:13:40.474Z,54.23
2022-09-12T07:15:43.002Z,53.67
2022-09-12T07:17:45.755Z,54.14
2022-09-12T07:19:48.266Z,54.12
2022-09-12T07:21:54.204Z,53.13
2022-09-12T07:23:59.323Z,51.97
2022-09-12T07:26:02.849Z,51.31
2022-09-12T07:28:05.330Z,51.04
2022-09-12T07:30:08.203Z,50.42
2022-09-12T07:32:12.300Z,51.32
2022-09-12T07:34:14.929Z,50.39
2022-09-12T07:36:20.345Z,50.13
2022-09-12T07:38:23.611Z,50.71
2022-09-12T07:40:26.081Z,51.17
2022-09-12T07:42:47.215Z,51.17
2022-09-12T07:44:54.051Z,50.38
2022-09-12T07:46:56.637Z,50.45
2022-09-12T07:49:01.154Z,50.81
2022-09-12T07:51:09.550Z,48.92
2022-09-12T07:53:12.270Z,50.09
2022-09-12T07:55:15.002Z,49.40
2022-09-12T07:57:17.641Z,49.30
2022-09-12T07:59:35.640Z,49.33
2022-09-12T08:01:43.310Z,49.72
2022-09-12T08:03:48.812Z,48.58
2022-09-12T08:05:51.329Z,48.31
2022-09-12T08:07:57.638Z,48.89
2022-09-12T08:10:00.661Z,48.91
2022-09-12T08:12:03.411Z,47.79
2022-09-12T08:14:06.102Z,48.88
2022-09-12T08:16:14.598Z,47.48
2022-09-12T08:18:17.142Z,48.63
2022-09-12T08:20:19.820Z,49.57
2022-09-12T08:22:22.710Z,49.33
2022-09-12T08:24:25.363Z,49.48
2022-09-12T08:26:28.484Z,48.52
2022-09-12T08:28:32.489Z,49.20
2022-09-12T08:30:35.129Z,48.21
2022-09-12T08:32:37.671Z,49.29
2022-09-12T08:34:40.207Z,50.34
2022-09-12T08:36:43.203Z,50.26
2022-09-12T08:38:47.636Z,51.48
2022-09-12T08:40:57.983Z,50.21
2022-09-12T08:43:14.641Z,50.72
2022-09-12T08:45:24.485Z,50.36
2022-09-12T08:47:32.122Z,50.23
2022-09-12T08:49:44.661Z,49.49
2022-09-12T08:51:48.114Z,50.13
2022-09-12T08:53:54.561Z,49.48
2022-09-12T08:56:00.083Z,50.51
2022-09-12T08:58:18.467Z,48.48
2022-09-12T09:00:21.814Z,51.26
2022-09-12T09:02:58.428Z,51.46
2022-09-12T09:05:31.840Z,52.91
2022-09-12T09:08:17.658Z,50.97
2022-09-12T09:11:12.429Z,50.02
2022-09-12T09:14:01.890Z,50.93
2022-09-12T09:16:21.786Z,51.09
2022-09-12T09:18:30.599Z,49.99
2022-09-12T09:20:53.230Z,50.50
2022-09-12T09:23:15.511Z,50.06
2022-09-12T09:25:25.881Z,48.84
2022-09-12T09:27:49.107Z,49.37
2022-09-12T09:29:54.972Z,47.98
2022-09-12T09:32:01.409Z,48.42
2022-09-12T09:34:13.872Z,49.66
2022-09-12T09:36:32.893Z,49.96
2022-09-12T09:38:35.473Z,51.02
2022-09-12T09:40:45.058Z,51.38
2022-09-12T09:43:20.464Z,49.49
2022-09-12T09:45:25.842Z,50.80
2022-09-12T09:47:28.781Z,50.23
2022-09-12T09:49:35.045Z,50.48
2022-09-12T09:51:40.572Z,48.44
2022-09-12T09:53:56.671Z,48.51
2022-09-12T09:56:02.884Z,47.89
2022-09-12T09:58:05.435Z,47.14
2022-09-12T10:00:30.752Z,46.91
2022-09-12T10:02:33.464Z,47.79
2022-09-12T10:04:41.576Z,46.50
2022-09-12T10:06:44.497Z,46.14
2022-09-12T10:08:48.717Z,45.84
2022-09-12T10:11:03.351Z,45.67
2022-09-12T10:13:43.635Z,44.89
2022-09-12T10:16:05.561Z,43.78
2022-09-12T10:18:08.202Z,44.46
2022-09-12T10:20:32.476Z,45.56
2022-09-12T10:22:34.976Z,43.40
2022-09-12T10:24:42.289Z,43.41
2022-09-12T10:26:47.761Z,44.38
2022-09-12T10:28:54.188Z,44.47
2022-09-12T10:30:57.118Z,44.13
2022-09-12T10:33:13.087Z,44.95
2022-09-12T10:35:24.320Z,44.16
2022-09-12T10:37:35.320Z,44.47
2022-09-12T10:39:39.094Z,44.93
2022-09-12T10:41:41.911Z,45.04
2022-09-12T10:43:45.438Z,45.53
2022-09-12T10:45:48.008Z,44.93
2022-09-12T10:47:52.033Z,45.49
2022-09-12T10:50:22.311Z,46.58
2022-09-12T10:52:25.985Z,46.03
2022-09-12T10:54:28.826Z,46.38
2022-09-12T10:56:36.190Z,46.62
2022-09-12T10:59:00.400Z,46.88
2022-09-12T11:01:45.407Z,46.25
2022-09-12T11:03:50.722Z,46.51
2022-09-12T11:06:00.726Z,46.72
2022-09-12T11:08:09.272Z,46.81
2022-09-12T11:10:36.781Z,44.27
2022-09-12T11:13:03.467Z,42.91
2022-09-12T11:15:33.801Z,42.80
2022-09-12T11:17:36.319Z,44.26
2022-09-12T11:19:57.438Z,43.35
2022-09-12T11:22:28.717Z,43.27
2022-09-12T11:24:48.934Z,41.01
2022-09-12T11:27:14.943Z,41.04
2022-09-12T11:29:38.390Z,40.76
2022-09-12T11:31:58.595Z,41.46
2022-09-12T11:34:09.234Z,41.55
2022-09-12T11:36:53.261Z,42.21
2022-09-12T11:39:21.740Z,43.77
2022-09-12T11:41:31.584Z,44.11
2022-09-12T11:43:43.193Z,44.50
2022-09-12T11:45:47.953Z,44.79
2022-09-12T11:47:55.671Z,44.70
2022-09-12T11:50:02.383Z,45.37
2022-09-12T11:52:14.585Z,45.23
2022-09-12T11:54:32.744Z,45.13
2022-09-12T11:56:39.152Z,45.53
2022-09-12T11:58:44.788Z,46.44
2022-09-12T12:00:54.339Z,46.10
2022-09-12T12:03:10.285Z,46.23
2022-09-12T12:05:24.956Z,47.25
2022-09-12T12:07:35.639Z,46.37
2022-09-12T12:09:52.861Z,46.57
2022-09-12T12:11:58.568Z,46.31
2022-09-12T12:14:02.588Z,44.58
2022-09-12T12:16:14.625Z,43.22
2022-09-12T12:18:28.044Z,43.09
2022-09-12T12:20:30.916Z,40.86
2022-09-12T12:22:33.889Z,39.95
2022-09-12T12:25:02.894Z,39.72
2022-09-12T12:27:25.819Z,38.83
2022-09-12T12:29:43.521Z,37.32
2022-09-12T12:32:04.466Z,36.79
2022-09-12T12:34:22.850Z,37.09
2022-09-12T12:36:37.462Z,35.78
2022-09-12T12:38:41.261Z,35.32
2022-09-12T12:40:43.819Z,34.42
2022-09-12T12:42:46.227Z,34.18
2022-09-12T12:44:51.591Z,34.04
2022-09-12T12:47:16.213Z,35.10
2022-09-12T12:49:28.385Z,35.79
2022-09-12T12:51:44.388Z,35.19
2022-09-12T12:53:47.592Z,35.74
2022-09-12T12:55:52.811Z,35.91
2022-09-12T12:58:07.052Z,34.27
2022-09-12T13:00:27.954Z,34.56
2022-09-12T13:02:37.530Z,34.86
2022-09-12T13:04:45.673Z,35.14
2022-09-12T13:06:57.446Z,36.11
2022-09-12T13:09:08.041Z,36.45
2022-09-12T13:11:28.610Z,36.46
2022-09-12T13:13:48.315Z,36.63
2022-09-12T13:15:52.525Z,36.04
2022-09-12T13:18:01.924Z,36.63
2022-09-12T13:20:29.625Z,37.26
2022-09-12T13:22:44.968Z,37.71
2022-09-12T13:24:49.381Z,37.98
2022-09-12T13:26:52.132Z,37.50
2022-09-12T13:29:16.656Z,36.62
2022-09-12T13:31:30.311Z,37.52
2022-09-12T13:33:43.207Z,38.34
2022-09-12T13:36:05.557Z,38.88
2022-09-12T13:38:26.429Z,38.96
2022-09-12T13:40:47.165Z,39.11
2022-09-12T13:42:53.767Z,40.58
2022-09-12T13:45:05.936Z,40.32
2022-09-12T13:47:15.325Z,41.12
2022-09-12T13:49:23.214Z,42.32
2022-09-12T13:51:32.587Z,42.41
2022-09-12T13:53:46.954Z,43.56
2022-09-12T13:55:56.606Z,44.15
2022-09-12T13:58:05.653Z,44.70
2022-09-12T14:00:19.834Z,45.05
2022-09-12T14:02:25.168Z,45.32
2022-09-12T14:04:46.502Z,45.06
2022-09-12T14:06:51.992Z,46.26
2022-09-12T14:09:01.574Z,46.60
2022-09-12T14:11:09.935Z,47.66
2022-09-12T14:13:25.322Z,49.83
2022-09-12T14:15:31.693Z,49.77
2022-09-12T14:17:36.534Z,46.33
2022-09-12T14:19:40.014Z,48.38
2022-09-12T14:21:42.623Z,48.57
2022-09-12T14:23:48.255Z,48.32
2022-09-12T14:25:52.280Z,47.56
2022-09-12T14:27:57.137Z,48.19
2022-09-12T14:30:22.952Z,46.87
2022-09-12T14:32:25.895Z,47.42
2022-09-12T14:34:29.318Z,47.79
2022-09-12T14:36:36.909Z,46.91
2022-09-12T14:38:50.242Z,47.41
2022-09-12T14:41:01.192Z,47.11
2022-09-12T14:43:03.889Z,47.63
2022-09-12T14:45:17.225Z,48.45
2022-09-12T14:47:25.903Z,47.99
2022-09-12T14:49:36.489Z,48.20
2022-09-12T14:51:47.146Z,48.81
2022-09-12T14:53:52.006Z,48.96
2022-09-12T14:56:11.869Z,49.86
2022-09-12T14:58:17.355Z,50.96
2022-09-12T15:00:24.986Z,51.36
2022-09-12T15:02:27.824Z,51.32
2022-09-12T15:04:48.335Z,52.68
2022-09-12T15:06:51.000Z,52.84
2022-09-12T15:08:55.101Z,52.58
2022-09-12T15:10:58.845Z,52.74
2022-09-12T15:13:10.032Z,52.32
2022-09-12T15:15:18.958Z,52.77
2022-09-12T15:17:21.576Z,52.86
2022-09-12T15:19:24.102Z,54.00
2022-09-12T15:21:26.846Z,53.23
2022-09-12T15:23:36.867Z,54.07
2022-09-12T15:25:39.404Z,54.95
2022-09-12T15:27:42.595Z,55.15
2022-09-12T15:29:45.248Z,54.39
2022-09-12T15:31:51.364Z,54.71
2022-09-12T15:33:56.369Z,54.49
2022-09-12T15:36:01.085Z,55.11
2022-09-12T15:38:10.793Z,55.84
2022-09-12T15:40:15.882Z,55.19
2022-09-12T15:42:29.700Z,55.24
2022-09-12T15:44:33.603Z,56.09
2022-09-12T15:46:37.995Z,55.63
2022-09-12T15:48:41.667Z,56.01
2022-09-12T15:50:46.034Z,55.90
2022-09-12T15:52:50.028Z,56.70
2022-09-12T15:54:53.708Z,56.71
2022-09-12T15:56:57.143Z,56.64
2022-09-12T15:59:00.630Z,56.73
2022-09-12T16:01:05.519Z,56.99
2022-09-12T16:03:28.047Z,56.87
2022-09-12T16:05:31.957Z,57.46
2022-09-12T16:07:35.757Z,57.60
2022-09-12T16:09:39.562Z,57.52
2022-09-12T16:11:45.475Z,58.12
2022-09-12T16:13:49.399Z,58.90
2022-09-12T16:15:57.743Z,58.94
2022-09-12T16:18:00.563Z,59.03
2022-09-12T16:20:03.618Z,59.17
2022-09-12T16:22:06.403Z,59.24
2022-09-12T16:24:08.875Z,58.96
2022-09-12T16:26:11.455Z,59.26
2022-09-12T16:28:14.140Z,58.79
2022-09-12T16:30:16.720Z,59.65
2022-09-12T16:32:19.183Z,60.32
2022-09-12T16:34:21.876Z,60.44
2022-09-12T16:36:24.717Z,60.00
2022-09-12T16:38:27.430Z,59.52
2022-09-12T16:40:31.726Z,59.95
2022-09-12T16:42:34.387Z,60.50
2022-09-12T16:44:36.957Z,59.34
2022-09-12T16:46:39.533Z,60.33
2022-09-12T16:48:51.808Z,59.55
2022-09-12T16:51:01.066Z,58.97
2022-09-12T16:53:03.683Z,58.83
2022-09-12T16:55:06.932Z,58.65
2022-09-12T16:57:09.531Z,58.95
2022-09-12T16:59:16.317Z,59.04
2022-09-12T17:01:21.827Z,58.96
2022-09-12T17:03:24.354Z,59.55
2022-09-12T17:05:27.961Z,59.82
2022-09-12T17:07:30.643Z,60.04
2022-09-12T17:09:33.282Z,60.52
2022-09-12T17:11:38.962Z,60.34
2022-09-12T17:14:03.319Z,60.72
2022-09-12T17:16:07.045Z,60.89
2022-09-12T17:18:09.491Z,60.96
2022-09-12T17:20:12.005Z,61.01
2022-09-12T17:22:14.548Z,60.48
2022-09-12T17:24:18.098Z,60.90
2022-09-12T17:26:20.957Z,60.63
2022-09-12T17:28:23.770Z,61.27
2022-09-12T17:30:26.380Z,61.44
2022-09-12T17:32:28.888Z,61.11
2022-09-12T17:34:31.550Z,61.33
2022-09-12T17:36:34.388Z,61.35
2022-09-12T17:38:39.862Z,61.37
2022-09-12T17:40:59.062Z,61.06
2022-09-12T17:43:02.541Z,60.77
2022-09-12T17:45:05.651Z,61.19
2022-09-12T17:47:08.167Z,61.11
2022-09-12T17:49:18.722Z,61.51
2022-09-12T17:51:25.455Z,61.16
2022-09-12T17:53:27.968Z,61.36
2022-09-12T17:55:34.223Z,61.29
2022-09-12T17:57:37.239Z,61.36
2022-09-12T17:59:40.228Z,61.26
2022-09-12T18:02:01.400Z,61.27
2022-09-12T18:04:03.978Z,61.04
2022-09-12T18:06:06.756Z,60.87
2022-09-12T18:08:09.307Z,61.23
2022-09-12T18:10:12.191Z,61.07
2022-09-12T18:12:15.793Z,61.16
2022-09-12T18:14:19.011Z,60.97
2022-09-12T18:16:21.561Z,61.00
2022-09-12T18:18:24.117Z,60.91
2022-09-12T18:20:26.777Z,60.40
2022-09-12T18:22:29.429Z,60.69
2022-09-12T18:24:32.735Z,60.73
2022-09-12T18:26:35.452Z,60.28
2022-09-12T18:28:40.632Z,60.41
2022-09-12T18:30:43.108Z,59.86
2022-09-12T18:32:46.140Z,59.37
2022-09-12T18:34:48.588Z,59.42
2022-09-12T18:36:54.413Z,59.16
2022-09-12T18:38:58.768Z,59.14
2022-09-12T18:41:03.437Z,59.11
2022-09-12T18:43:06.240Z,59.10
2022-09-12T18:45:09.578Z,58.89
2022-09-12T18:47:12.046Z,58.99
2022-09-12T18:49:14.535Z,59.18
2022-09-12T18:51:25.951Z,58.82
2022-09-12T18:53:28.420Z,59.45
2022-09-12T18:55:32.256Z,59.49
2022-09-12T18:57:35.297Z,59.73
2022-09-12T18:59:37.887Z,59.74
2022-09-12T19:01:40.563Z,59.73
2022-09-12T19:03:43.889Z,60.00
2022-09-12T19:05:46.477Z,59.91
2022-09-12T19:07:49.133Z,60.23
2022-09-12T19:09:51.813Z,60.29
2022-09-12T19:11:54.323Z,60.41
2022-09-12T19:13:57.233Z,60.17
2022-09-12T19:16:01.225Z,59.84
2022-09-12T19:18:03.861Z,59.89
2022-09-12T19:20:06.784Z,60.63
2022-09-12T19:22:09.444Z,60.17
2022-09-12T19:24:13.730Z,60.39
2022-09-12T19:26:18.227Z,60.17
2022-09-12T19:28:20.675Z,60.13
2022-09-12T19:30:23.518Z,60.22
2022-09-12T19:32:26.022Z,60.62
2022-09-12T19:34:28.490Z,60.73
2022-09-12T19:36:44.967Z,60.98
2022-09-12T19:38:48.836Z,60.71
2022-09-12T19:40:58.713Z,61.11
2022-09-12T19:43:01.138Z,61.16
2022-09-12T19:45:04.082Z,61.47
2022-09-12T19:47:06.648Z,61.45
2022-09-12T19:49:11.064Z,61.91
2022-09-12T19:51:15.661Z,62.00
2022-09-12T19:53:18.727Z,61.92
2022-09-12T19:55:22.352Z,61.87
2022-09-12T19:57:24.835Z,62.19
2022-09-12T19:59:27.370Z,62.65
2022-09-12T20:01:29.955Z,62.70
2022-09-12T20:03:32.601Z,62.63
2022-09-12T20:05:38.496Z,62.87
2022-09-12T20:07:44.559Z,62.94
2022-09-12T20:09:47.324Z,62.97
2022-09-12T20:11:50.139Z,63.51
2022-09-12T20:13:52.723Z,63.40
2022-09-12T20:15:55.231Z,63.58
2022-09-12T20:17:58.386Z,64.14
2022-09-12T20:20:00.881Z,64.18
2022-09-12T20:22:03.544Z,64.53
2022-09-12T20:24:15.917Z,64.92
2022-09-12T20:26:20.478Z,65.00
2022-09-12T20:28:23.185Z,64.85
2022-09-12T20:30:25.820Z,65.41
2022-09-12T20:32:29.252Z,65.32
2022-09-12T20:34:31.786Z,65.39
2022-09-12T20:36:34.678Z,65.74
2022-09-12T20:38:37.209Z,65.78
2022-09-12T20:40:39.907Z,65.84
2022-09-12T20:42:42.530Z,66.22
2022-09-12T20:44:44.996Z,65.93
2022-09-12T20:46:47.610Z,66.41
2022-09-12T20:48:51.523Z,66.19
2022-09-12T20:50:54.020Z,66.34
2022-09-12T20:52:56.448Z,66.24
2022-09-12T20:54:58.981Z,65.89
2022-09-12T20:57:01.503Z,66.34
2022-09-12T20:59:04.917Z,66.56
2022-09-12T21:01:09.079Z,66.65
2022-09-12T21:03:11.870Z,66.45
2022-09-12T21:05:14.542Z,66.92
2022-09-12T21:07:17.373Z,67.07
2022-09-12T21:09:19.947Z,67.05
2022-09-12T21:11:22.370Z,67.07
2022-09-12T21:13:24.996Z,67.10
2022-09-12T21:15:27.512Z,67.43
2022-09-12T21:17:29.971Z,67.39
2022-09-12T21:19:32.453Z,67.79
2022-09-12T21:21:35.117Z,67.82
2022-09-12T21:23:37.994Z,67.71
2022-09-12T21:25:40.548Z,67.79
2022-09-12T21:27:43.121Z,67.82
2022-09-12T21:29:45.581Z,67.97
2022-09-12T21:31:48.148Z,67.88
2022-09-12T21:33:51.502Z,68.28
2022-09-12T21:35:54.394Z,68.31
2022-09-12T21:37:57.450Z,68.49
2022-09-12T21:40:00.032Z,68.69
2022-09-12T21:42:02.575Z,68.35
2022-09-12T21:44:05.332Z,68.70
2022-09-12T21:46:09.032Z,68.39
2022-09-12T21:48:12.394Z,68.30
2022-09-12T21:50:15.343Z,68.08
2022-09-12T21:52:17.793Z,67.90
2022-09-12T21:54:20.248Z,67.64
2022-09-12T21:56:23.465Z,67.04
2022-09-12T21:58:25.950Z,66.75
2022-09-12T22:00:28.598Z,67.02
2022-09-12T22:02:31.107Z,67.19
2022-09-12T22:04:33.550Z,67.16
2022-09-12T22:06:36.690Z,66.98
2022-09-12T22:08:39.384Z,67.39
2022-09-12T22:10:42.063Z,67.23
2022-09-12T22:12:46.471Z,67.33
2022-09-12T22:14:49.435Z,67.38
2022-09-12T22:16:52.049Z,67.47
2022-09-12T22:18:54.599Z,67.65
2022-09-12T22:21:05.771Z,67.93
2022-09-12T22:23:28.363Z,68.29
2022-09-12T22:25:31.054Z,68.58
2022-09-12T22:27:33.591Z,68.73
2022-09-12T22:29:37.322Z,69.35
2022-09-12T22:31:40.480Z,69.56
2022-09-12T22:33:43.251Z,69.93
2022-09-12T22:35:45.742Z,70.21
2022-09-12T22:37:48.232Z,70.70
2022-09-12T22:39:51.032Z,71.29
2022-09-12T22:41:53.580Z,71.93
2022-09-12T22:43:57.297Z,72.62
2022-09-12T22:46:00.574Z,72.91
2022-09-12T22:48:06.217Z,73.49
2022-09-12T22:50:11.552Z,74.01
2022-09-12T22:52:16.161Z,74.61
2022-09-12T22:54:19.022Z,75.05
2022-09-12T22:56:21.835Z,76.14
2022-09-12T22:58:24.420Z,76.79
2022-09-12T23:00:29.920Z,77.58
2022-09-12T23:02:32.418Z,77.96
2022-09-12T23:04:34.995Z,78.90
2022-09-12T23:06:37.455Z,79.79
2022-09-12T23:08:40.360Z,80.57
2022-09-12T23:10:44.162Z,80.69
2022-09-12T23:12:46.642Z,81.54
2022-09-12T23:14:49.191Z,81.44
2022-09-12T23:16:51.680Z,82.04
2022-09-12T23:18:54.236Z,82.37
2022-09-12T23:21:01.389Z,82.35
2022-09-12T23:23:04.225Z,82.43
2022-09-12T23:25:07.750Z,82.64
2022-09-12T23:27:10.293Z,82.77
2022-09-12T23:29:12.746Z,82.72
2022-09-12T23:31:17.180Z,83.23
2022-09-12T23:33:20.053Z,84.06
2022-09-12T23:35:22.501Z,84.37
2022-09-12T23:37:26.787Z,84.38
2022-09-12T23:39:29.298Z,84.33
2022-09-12T23:41:32.083Z,84.75
2022-09-12T23:43:34.922Z,85.24
2022-09-12T23:45:37.476Z,85.94
2022-09-12T23:47:39.965Z,86.29
2022-09-12T23:49:42.442Z,86.81
2022-09-12T23:51:44.974Z,87.00
2022-09-12T23:53:47.769Z,87.29
2022-09-12T23:55:50.477Z,88.23
2022-09-12T23:57:54.388Z,88.01
2022-09-12T23:59:56.833Z,88.50
